sensor_id;sensor_type;location;lat;lon;timestamp;P1;durP1;ratioP1;P2;durP2;ratioP2
44438;SDS011;30145;48.874;10.186;2023-01-28T00:00:53;28.50;;;14.23;;
44438;SDS011;30145;48.874;10.186;2023-01-28T00:03:20;16.60;;;9.97;;
44438;SDS011;30145;48.874;10.186;2023-01-28T00:05:47;55.73;;;25.00;;
44438;SDS011;30145;48.874;10.186;2023-01-28T00:08:14;48.83;;;20.37;;
44438;SDS011;30145;48.874;10.186;2023-01-28T00:10:41;24.63;;;14.50;;
44438;SDS011;30145;48.874;10.186;2023-01-28T00:13:10;17.53;;;10.73;;
44438;SDS011;30145;48.874;10.186;2023-01-28T00:15:41;13.80;;;9.17;;
44438;SDS011;30145;48.874;10.186;2023-01-28T00:18:08;13.90;;;9.30;;
44438;SDS011;30145;48.874;10.186;2023-01-28T00:20:35;17.40;;;10.83;;
44438;SDS011;30145;48.874;10.186;2023-01-28T00:23:02;18.17;;;10.60;;
44438;SDS011;30145;48.874;10.186;2023-01-28T00:25:29;14.67;;;9.27;;
44438;SDS011;30145;48.874;10.186;2023-01-28T00:27:56;15.53;;;10.03;;
44438;SDS011;30145;48.874;10.186;2023-01-28T00:30:23;20.23;;;12.77;;
44438;SDS011;30145;48.874;10.186;2023-01-28T00:32:52;17.20;;;11.00;;
44438;SDS011;30145;48.874;10.186;2023-01-28T00:35:20;16.80;;;9.87;;
44438;SDS011;30145;48.874;10.186;2023-01-28T00:37:47;16.50;;;10.10;;
44438;SDS011;30145;48.874;10.186;2023-01-28T00:40:14;26.43;;;16.10;;
44438;SDS011;30145;48.874;10.186;2023-01-28T00:42:41;40.20;;;24.87;;
44438;SDS011;30145;48.874;10.186;2023-01-28T00:45:08;18.00;;;10.60;;
44438;SDS011;30145;48.874;10.186;2023-01-28T00:47:35;16.93;;;11.00;;
44438;SDS011;30145;48.874;10.186;2023-01-28T00:50:03;19.70;;;11.63;;
44438;SDS011;30145;48.874;10.186;2023-01-28T00:52:30;14.27;;;9.93;;
44438;SDS011;30145;48.874;10.186;2023-01-28T00:54:57;14.50;;;9.87;;
44438;SDS011;30145;48.874;10.186;2023-01-28T00:57:25;15.83;;;11.50;;
44438;SDS011;30145;48.874;10.186;2023-01-28T00:59:52;15.67;;;10.73;;
44438;SDS011;30145;48.874;10.186;2023-01-28T01:02:19;18.80;;;12.63;;
44438;SDS011;30145;48.874;10.186;2023-01-28T01:04:46;14.33;;;9.70;;
44438;SDS011;30145;48.874;10.186;2023-01-28T01:07:24;14.80;;;10.27;;
44438;SDS011;30145;48.874;10.186;2023-01-28T01:10:09;13.90;;;9.10;;
44438;SDS011;30145;48.874;10.186;2023-01-28T01:12:37;14.37;;;8.73;;
44438;SDS011;30145;48.874;10.186;2023-01-28T01:15:05;13.23;;;8.83;;
44438;SDS011;30145;48.874;10.186;2023-01-28T01:17:39;14.93;;;9.03;;
44438;SDS011;30145;48.874;10.186;2023-01-28T01:20:10;12.83;;;8.60;;
44438;SDS011;30145;48.874;10.186;2023-01-28T01:22:39;11.23;;;8.17;;
44438;SDS011;30145;48.874;10.186;2023-01-28T01:25:06;13.10;;;8.43;;
44438;SDS011;30145;48.874;10.186;2023-01-28T01:27:33;10.80;;;8.00;;
44438;SDS011;30145;48.874;10.186;2023-01-28T01:30:00;11.57;;;8.00;;
44438;SDS011;30145;48.874;10.186;2023-01-28T01:32:28;13.63;;;8.43;;
44438;SDS011;30145;48.874;10.186;2023-01-28T01:34:56;13.43;;;8.63;;
44438;SDS011;30145;48.874;10.186;2023-01-28T01:37:23;12.60;;;7.90;;
44438;SDS011;30145;48.874;10.186;2023-01-28T01:39:50;12.10;;;8.27;;
44438;SDS011;30145;48.874;10.186;2023-01-28T01:42:17;11.17;;;7.73;;
44438;SDS011;30145;48.874;10.186;2023-01-28T01:44:46;12.33;;;8.47;;
44438;SDS011;30145;48.874;10.186;2023-01-28T01:49:58;11.13;;;8.03;;
44438;SDS011;30145;48.874;10.186;2023-01-28T01:52:59;12.43;;;8.10;;
44438;SDS011;30145;48.874;10.186;2023-01-28T01:55:33;13.27;;;8.27;;
44438;SDS011;30145;48.874;10.186;2023-01-28T01:58:04;11.13;;;7.93;;
44438;SDS011;30145;48.874;10.186;2023-01-28T02:00:33;12.00;;;7.87;;
44438;SDS011;30145;48.874;10.186;2023-01-28T02:03:00;11.83;;;7.70;;
44438;SDS011;30145;48.874;10.186;2023-01-28T02:05:27;11.77;;;7.90;;
44438;SDS011;30145;48.874;10.186;2023-01-28T02:07:54;10.73;;;7.77;;
44438;SDS011;30145;48.874;10.186;2023-01-28T02:10:41;12.13;;;8.33;;
44438;SDS011;30145;48.874;10.186;2023-01-28T02:13:09;12.90;;;8.00;;
44438;SDS011;30145;48.874;10.186;2023-01-28T02:15:36;11.67;;;7.77;;
44438;SDS011;30145;48.874;10.186;2023-01-28T02:18:03;12.70;;;7.90;;
44438;SDS011;30145;48.874;10.186;2023-01-28T02:20:36;12.07;;;8.57;;
44438;SDS011;30145;48.874;10.186;2023-01-28T02:26:22;12.10;;;7.90;;
44438;SDS011;30145;48.874;10.186;2023-01-28T02:29:13;13.00;;;8.63;;
44438;SDS011;30145;48.874;10.186;2023-01-28T02:31:45;11.43;;;8.43;;
44438;SDS011;30145;48.874;10.186;2023-01-28T02:34:44;13.30;;;8.43;;
44438;SDS011;30145;48.874;10.186;2023-01-28T02:37:14;10.57;;;7.97;;
44438;SDS011;30145;48.874;10.186;2023-01-28T02:40:04;12.30;;;8.20;;
44438;SDS011;30145;48.874;10.186;2023-01-28T02:42:37;10.70;;;7.87;;
44438;SDS011;30145;48.874;10.186;2023-01-28T02:48:20;10.80;;;8.30;;
44438;SDS011;30145;48.874;10.186;2023-01-28T02:50:49;11.37;;;8.30;;
44438;SDS011;30145;48.874;10.186;2023-01-28T02:53:37;12.97;;;7.97;;
44438;SDS011;30145;48.874;10.186;2023-01-28T03:06:27;11.37;;;7.77;;
44438;SDS011;30145;48.874;10.186;2023-01-28T03:09:00;11.43;;;8.57;;
44438;SDS011;30145;48.874;10.186;2023-01-28T03:12:34;10.23;;;7.17;;
44438;SDS011;30145;48.874;10.186;2023-01-28T03:15:13;10.87;;;8.23;;
44438;SDS011;30145;48.874;10.186;2023-01-28T03:18:02;13.33;;;9.03;;
44438;SDS011;30145;48.874;10.186;2023-01-28T03:24:04;12.03;;;8.17;;
44438;SDS011;30145;48.874;10.186;2023-01-28T03:26:53;12.50;;;9.17;;
44438;SDS011;30145;48.874;10.186;2023-01-28T03:29:42;10.87;;;8.40;;
44438;SDS011;30145;48.874;10.186;2023-01-28T03:32:29;11.83;;;8.83;;
44438;SDS011;30145;48.874;10.186;2023-01-28T03:35:15;12.87;;;8.70;;
44438;SDS011;30145;48.874;10.186;2023-01-28T03:38:03;13.27;;;8.97;;
44438;SDS011;30145;48.874;10.186;2023-01-28T03:40:50;14.00;;;8.67;;
44438;SDS011;30145;48.874;10.186;2023-01-28T03:43:21;12.33;;;8.80;;
44438;SDS011;30145;48.874;10.186;2023-01-28T03:45:48;14.23;;;9.50;;
44438;SDS011;30145;48.874;10.186;2023-01-28T03:48:18;10.87;;;8.20;;
44438;SDS011;30145;48.874;10.186;2023-01-28T03:50:46;11.40;;;8.10;;
44438;SDS011;30145;48.874;10.186;2023-01-28T03:53:14;12.90;;;8.53;;
44438;SDS011;30145;48.874;10.186;2023-01-28T03:55:42;12.57;;;8.83;;
44438;SDS011;30145;48.874;10.186;2023-01-28T03:58:10;10.17;;;8.00;;
44438;SDS011;30145;48.874;10.186;2023-01-28T04:00:38;10.67;;;8.67;;
44438;SDS011;30145;48.874;10.186;2023-01-28T04:03:09;14.13;;;8.90;;
44438;SDS011;30145;48.874;10.186;2023-01-28T04:05:44;11.03;;;7.67;;
44438;SDS011;30145;48.874;10.186;2023-01-28T04:08:23;10.13;;;7.40;;
44438;SDS011;30145;48.874;10.186;2023-01-28T04:10:50;10.63;;;7.63;;
44438;SDS011;30145;48.874;10.186;2023-01-28T04:13:18;11.47;;;8.33;;
44438;SDS011;30145;48.874;10.186;2023-01-28T04:15:45;11.10;;;7.90;;
44438;SDS011;30145;48.874;10.186;2023-01-28T04:18:12;11.03;;;8.17;;
44438;SDS011;30145;48.874;10.186;2023-01-28T04:20:39;12.90;;;8.23;;
44438;SDS011;30145;48.874;10.186;2023-01-28T04:23:06;10.47;;;8.17;;
44438;SDS011;30145;48.874;10.186;2023-01-28T04:25:34;12.93;;;8.60;;
44438;SDS011;30145;48.874;10.186;2023-01-28T04:28:01;11.10;;;8.33;;
44438;SDS011;30145;48.874;10.186;2023-01-28T04:30:28;12.70;;;8.30;;
44438;SDS011;30145;48.874;10.186;2023-01-28T04:32:55;10.50;;;8.03;;
44438;SDS011;30145;48.874;10.186;2023-01-28T04:35:22;12.67;;;7.93;;
44438;SDS011;30145;48.874;10.186;2023-01-28T04:37:49;11.10;;;7.60;;
44438;SDS011;30145;48.874;10.186;2023-01-28T04:40:16;11.77;;;8.23;;
44438;SDS011;30145;48.874;10.186;2023-01-28T04:42:51;12.27;;;7.93;;
44438;SDS011;30145;48.874;10.186;2023-01-28T04:45:19;11.47;;;8.03;;
44438;SDS011;30145;48.874;10.186;2023-01-28T04:47:47;11.40;;;8.47;;
44438;SDS011;30145;48.874;10.186;2023-01-28T04:50:14;12.67;;;8.47;;
44438;SDS011;30145;48.874;10.186;2023-01-28T04:52:41;11.70;;;8.13;;
44438;SDS011;30145;48.874;10.186;2023-01-28T04:55:09;10.33;;;8.17;;
44438;SDS011;30145;48.874;10.186;2023-01-28T04:57:36;12.00;;;8.53;;
44438;SDS011;30145;48.874;10.186;2023-01-28T05:00:03;12.53;;;8.63;;
44438;SDS011;30145;48.874;10.186;2023-01-28T05:02:37;10.20;;;7.97;;
44438;SDS011;30145;48.874;10.186;2023-01-28T05:05:04;12.00;;;8.60;;
44438;SDS011;30145;48.874;10.186;2023-01-28T05:07:34;10.93;;;8.03;;
44438;SDS011;30145;48.874;10.186;2023-01-28T05:10:02;11.57;;;8.00;;
44438;SDS011;30145;48.874;10.186;2023-01-28T05:12:30;16.30;;;10.87;;
44438;SDS011;30145;48.874;10.186;2023-01-28T05:14:58;11.53;;;8.43;;
44438;SDS011;30145;48.874;10.186;2023-01-28T05:17:26;11.37;;;8.80;;
44438;SDS011;30145;48.874;10.186;2023-01-28T05:19:53;10.70;;;7.80;;
44438;SDS011;30145;48.874;10.186;2023-01-28T05:22:20;11.43;;;8.07;;
44438;SDS011;30145;48.874;10.186;2023-01-28T05:24:48;13.23;;;8.57;;
44438;SDS011;30145;48.874;10.186;2023-01-28T05:27:15;13.13;;;8.67;;
44438;SDS011;30145;48.874;10.186;2023-01-28T05:29:42;12.27;;;9.03;;
44438;SDS011;30145;48.874;10.186;2023-01-28T05:32:09;14.13;;;8.80;;
44438;SDS011;30145;48.874;10.186;2023-01-28T05:34:36;12.90;;;9.43;;
44438;SDS011;30145;48.874;10.186;2023-01-28T05:37:03;10.83;;;7.90;;
44438;SDS011;30145;48.874;10.186;2023-01-28T05:39:30;11.80;;;8.37;;
44438;SDS011;30145;48.874;10.186;2023-01-28T05:41:57;12.80;;;8.90;;
44438;SDS011;30145;48.874;10.186;2023-01-28T05:44:27;12.30;;;8.77;;
44438;SDS011;30145;48.874;10.186;2023-01-28T05:46:54;13.50;;;8.80;;
44438;SDS011;30145;48.874;10.186;2023-01-28T05:49:20;12.87;;;9.53;;
44438;SDS011;30145;48.874;10.186;2023-01-28T05:51:47;11.47;;;9.17;;
44438;SDS011;30145;48.874;10.186;2023-01-28T05:54:15;13.67;;;9.13;;
44438;SDS011;30145;48.874;10.186;2023-01-28T05:56:42;12.60;;;9.20;;
44438;SDS011;30145;48.874;10.186;2023-01-28T05:59:10;13.57;;;8.97;;
44438;SDS011;30145;48.874;10.186;2023-01-28T06:01:37;12.37;;;8.63;;
44438;SDS011;30145;48.874;10.186;2023-01-28T06:04:04;14.30;;;8.73;;
44438;SDS011;30145;48.874;10.186;2023-01-28T06:06:31;12.97;;;8.70;;
44438;SDS011;30145;48.874;10.186;2023-01-28T06:08:58;11.83;;;8.20;;
44438;SDS011;30145;48.874;10.186;2023-01-28T06:11:25;13.67;;;9.57;;
44438;SDS011;30145;48.874;10.186;2023-01-28T06:13:53;13.40;;;9.53;;
44438;SDS011;30145;48.874;10.186;2023-01-28T06:16:20;13.67;;;9.27;;
44438;SDS011;30145;48.874;10.186;2023-01-28T06:18:47;12.80;;;8.93;;
44438;SDS011;30145;48.874;10.186;2023-01-28T06:21:14;13.17;;;8.83;;
44438;SDS011;30145;48.874;10.186;2023-01-28T06:23:40;15.03;;;9.33;;
44438;SDS011;30145;48.874;10.186;2023-01-28T06:26:07;14.63;;;9.63;;
44438;SDS011;30145;48.874;10.186;2023-01-28T06:28:34;14.80;;;9.40;;
44438;SDS011;30145;48.874;10.186;2023-01-28T06:31:01;16.53;;;10.17;;
44438;SDS011;30145;48.874;10.186;2023-01-28T06:33:28;13.40;;;9.67;;
44438;SDS011;30145;48.874;10.186;2023-01-28T06:35:55;12.90;;;9.50;;
44438;SDS011;30145;48.874;10.186;2023-01-28T06:38:22;13.27;;;9.30;;
44438;SDS011;30145;48.874;10.186;2023-01-28T06:40:50;12.83;;;9.23;;
44438;SDS011;30145;48.874;10.186;2023-01-28T06:43:18;14.50;;;9.17;;
44438;SDS011;30145;48.874;10.186;2023-01-28T06:45:45;13.60;;;9.77;;
44438;SDS011;30145;48.874;10.186;2023-01-28T06:48:22;13.40;;;9.57;;
44438;SDS011;30145;48.874;10.186;2023-01-28T06:50:50;15.93;;;10.40;;
44438;SDS011;30145;48.874;10.186;2023-01-28T06:53:18;14.27;;;10.10;;
44438;SDS011;30145;48.874;10.186;2023-01-28T06:55:45;15.23;;;10.40;;
44438;SDS011;30145;48.874;10.186;2023-01-28T06:58:12;14.20;;;9.63;;
44438;SDS011;30145;48.874;10.186;2023-01-28T07:00:39;14.53;;;10.13;;
44438;SDS011;30145;48.874;10.186;2023-01-28T07:03:06;16.47;;;9.90;;
44438;SDS011;30145;48.874;10.186;2023-01-28T07:05:33;13.47;;;9.80;;
44438;SDS011;30145;48.874;10.186;2023-01-28T07:08:00;15.00;;;10.13;;
44438;SDS011;30145;48.874;10.186;2023-01-28T07:10:28;14.03;;;9.87;;
44438;SDS011;30145;48.874;10.186;2023-01-28T07:12:55;14.97;;;10.93;;
44438;SDS011;30145;48.874;10.186;2023-01-28T07:15:22;14.57;;;10.83;;
44438;SDS011;30145;48.874;10.186;2023-01-28T07:17:49;15.93;;;10.20;;
44438;SDS011;30145;48.874;10.186;2023-01-28T07:20:16;16.73;;;11.23;;
44438;SDS011;30145;48.874;10.186;2023-01-28T07:22:44;17.17;;;12.37;;
44438;SDS011;30145;48.874;10.186;2023-01-28T07:25:11;16.53;;;11.33;;
44438;SDS011;30145;48.874;10.186;2023-01-28T07:27:44;15.50;;;10.87;;
44438;SDS011;30145;48.874;10.186;2023-01-28T07:30:15;16.70;;;11.37;;
44438;SDS011;30145;48.874;10.186;2023-01-28T07:32:43;15.50;;;11.03;;
44438;SDS011;30145;48.874;10.186;2023-01-28T07:35:10;18.53;;;11.83;;
44438;SDS011;30145;48.874;10.186;2023-01-28T07:37:38;16.03;;;12.07;;
44438;SDS011;30145;48.874;10.186;2023-01-28T07:40:05;16.83;;;11.60;;
44438;SDS011;30145;48.874;10.186;2023-01-28T07:42:35;14.87;;;11.13;;
44438;SDS011;30145;48.874;10.186;2023-01-28T07:45:02;15.57;;;10.63;;
44438;SDS011;30145;48.874;10.186;2023-01-28T07:47:30;16.67;;;10.80;;
44438;SDS011;30145;48.874;10.186;2023-01-28T07:49:57;18.70;;;12.00;;
44438;SDS011;30145;48.874;10.186;2023-01-28T07:52:24;16.47;;;10.83;;
44438;SDS011;30145;48.874;10.186;2023-01-28T07:54:51;18.93;;;12.30;;
44438;SDS011;30145;48.874;10.186;2023-01-28T07:57:18;20.50;;;12.60;;
44438;SDS011;30145;48.874;10.186;2023-01-28T07:59:49;17.77;;;12.20;;
44438;SDS011;30145;48.874;10.186;2023-01-28T08:02:19;18.13;;;11.43;;
44438;SDS011;30145;48.874;10.186;2023-01-28T08:04:46;15.97;;;11.30;;
44438;SDS011;30145;48.874;10.186;2023-01-28T08:07:13;33.63;;;29.33;;
44438;SDS011;30145;48.874;10.186;2023-01-28T08:09:40;21.30;;;15.13;;
44438;SDS011;30145;48.874;10.186;2023-01-28T08:12:07;17.43;;;12.43;;
44438;SDS011;30145;48.874;10.186;2023-01-28T08:14:34;17.87;;;12.20;;
44438;SDS011;30145;48.874;10.186;2023-01-28T08:17:01;17.30;;;11.23;;
44438;SDS011;30145;48.874;10.186;2023-01-28T08:19:29;18.50;;;11.43;;
44438;SDS011;30145;48.874;10.186;2023-01-28T08:21:56;19.27;;;14.27;;
44438;SDS011;30145;48.874;10.186;2023-01-28T08:24:23;18.27;;;12.20;;
44438;SDS011;30145;48.874;10.186;2023-01-28T08:26:50;18.93;;;12.37;;
44438;SDS011;30145;48.874;10.186;2023-01-28T08:29:17;22.67;;;15.17;;
44438;SDS011;30145;48.874;10.186;2023-01-28T08:31:45;19.63;;;13.37;;
44438;SDS011;30145;48.874;10.186;2023-01-28T08:34:12;18.30;;;12.20;;
44438;SDS011;30145;48.874;10.186;2023-01-28T08:36:39;18.13;;;12.00;;
44438;SDS011;30145;48.874;10.186;2023-01-28T08:39:06;18.33;;;12.17;;
44438;SDS011;30145;48.874;10.186;2023-01-28T08:41:33;19.43;;;13.03;;
44438;SDS011;30145;48.874;10.186;2023-01-28T08:44:00;18.00;;;12.20;;
44438;SDS011;30145;48.874;10.186;2023-01-28T08:46:27;18.37;;;12.43;;
44438;SDS011;30145;48.874;10.186;2023-01-28T08:48:54;18.03;;;12.07;;
44438;SDS011;30145;48.874;10.186;2023-01-28T08:51:21;19.00;;;13.03;;
44438;SDS011;30145;48.874;10.186;2023-01-28T08:53:48;30.57;;;19.33;;
44438;SDS011;30145;48.874;10.186;2023-01-28T08:56:16;18.33;;;12.30;;
44438;SDS011;30145;48.874;10.186;2023-01-28T08:58:43;18.37;;;12.73;;
44438;SDS011;30145;48.874;10.186;2023-01-28T09:01:10;22.90;;;14.80;;
44438;SDS011;30145;48.874;10.186;2023-01-28T09:03:37;22.70;;;13.07;;
44438;SDS011;30145;48.874;10.186;2023-01-28T09:06:04;22.47;;;15.63;;
44438;SDS011;30145;48.874;10.186;2023-01-28T09:08:32;21.63;;;14.47;;
44438;SDS011;30145;48.874;10.186;2023-01-28T09:10:59;21.40;;;12.70;;
44438;SDS011;30145;48.874;10.186;2023-01-28T09:13:26;22.20;;;13.80;;
44438;SDS011;30145;48.874;10.186;2023-01-28T09:15:55;19.07;;;13.07;;
44438;SDS011;30145;48.874;10.186;2023-01-28T09:18:22;19.70;;;12.90;;
44438;SDS011;30145;48.874;10.186;2023-01-28T09:20:52;18.17;;;12.57;;
44438;SDS011;30145;48.874;10.186;2023-01-28T09:23:19;19.03;;;12.60;;
44438;SDS011;30145;48.874;10.186;2023-01-28T09:25:47;19.30;;;12.47;;
44438;SDS011;30145;48.874;10.186;2023-01-28T09:28:14;21.47;;;12.63;;
44438;SDS011;30145;48.874;10.186;2023-01-28T09:30:41;16.40;;;12.90;;
44438;SDS011;30145;48.874;10.186;2023-01-28T09:33:08;57.77;;;34.27;;
44438;SDS011;30145;48.874;10.186;2023-01-28T09:35:35;35.80;;;23.87;;
44438;SDS011;30145;48.874;10.186;2023-01-28T09:38:02;18.87;;;12.73;;
44438;SDS011;30145;48.874;10.186;2023-01-28T09:40:31;19.07;;;12.10;;
44438;SDS011;30145;48.874;10.186;2023-01-28T09:45:47;18.20;;;11.90;;
44438;SDS011;30145;48.874;10.186;2023-01-28T09:48:17;15.90;;;10.50;;
44438;SDS011;30145;48.874;10.186;2023-01-28T09:50:51;16.83;;;11.40;;
44438;SDS011;30145;48.874;10.186;2023-01-28T09:53:24;17.90;;;11.90;;
44438;SDS011;30145;48.874;10.186;2023-01-28T09:55:55;17.27;;;11.67;;
44438;SDS011;30145;48.874;10.186;2023-01-28T09:58:30;18.57;;;11.70;;
44438;SDS011;30145;48.874;10.186;2023-01-28T10:00:58;16.80;;;11.60;;
44438;SDS011;30145;48.874;10.186;2023-01-28T10:03:47;20.47;;;11.70;;
44438;SDS011;30145;48.874;10.186;2023-01-28T10:06:40;19.37;;;13.53;;
44438;SDS011;30145;48.874;10.186;2023-01-28T10:12:42;27.00;;;19.97;;
44438;SDS011;30145;48.874;10.186;2023-01-28T10:15:24;19.40;;;13.03;;
44438;SDS011;30145;48.874;10.186;2023-01-28T10:17:53;18.73;;;12.13;;
44438;SDS011;30145;48.874;10.186;2023-01-28T10:23:56;17.23;;;12.10;;
44438;SDS011;30145;48.874;10.186;2023-01-28T10:26:33;16.57;;;11.33;;
44438;SDS011;30145;48.874;10.186;2023-01-28T10:29:05;21.90;;;12.13;;
44438;SDS011;30145;48.874;10.186;2023-01-28T10:31:38;18.40;;;11.77;;
44438;SDS011;30145;48.874;10.186;2023-01-28T10:34:10;29.97;;;17.93;;
44438;SDS011;30145;48.874;10.186;2023-01-28T10:36:37;25.53;;;15.90;;
44438;SDS011;30145;48.874;10.186;2023-01-28T10:39:04;18.40;;;11.63;;
44438;SDS011;30145;48.874;10.186;2023-01-28T10:41:33;19.53;;;12.47;;
44438;SDS011;30145;48.874;10.186;2023-01-28T10:44:03;21.90;;;14.20;;
44438;SDS011;30145;48.874;10.186;2023-01-28T10:46:31;23.00;;;13.70;;
44438;SDS011;30145;48.874;10.186;2023-01-28T10:49:11;22.73;;;13.77;;
44438;SDS011;30145;48.874;10.186;2023-01-28T10:51:41;20.10;;;14.07;;
44438;SDS011;30145;48.874;10.186;2023-01-28T10:54:19;20.90;;;12.37;;
44438;SDS011;30145;48.874;10.186;2023-01-28T10:56:54;18.57;;;11.73;;
44438;SDS011;30145;48.874;10.186;2023-01-28T11:01:58;19.53;;;12.13;;
44438;SDS011;30145;48.874;10.186;2023-01-28T11:07:02;18.63;;;12.13;;
44438;SDS011;30145;48.874;10.186;2023-01-28T11:09:34;21.40;;;15.87;;
44438;SDS011;30145;48.874;10.186;2023-01-28T11:12:16;21.43;;;13.77;;
44438;SDS011;30145;48.874;10.186;2023-01-28T11:15:00;18.80;;;12.47;;
44438;SDS011;30145;48.874;10.186;2023-01-28T11:17:36;20.83;;;12.67;;
44438;SDS011;30145;48.874;10.186;2023-01-28T11:20:20;18.10;;;11.53;;
44438;SDS011;30145;48.874;10.186;2023-01-28T11:22:48;21.60;;;13.20;;
44438;SDS011;30145;48.874;10.186;2023-01-28T11:27:56;17.83;;;11.40;;
44438;SDS011;30145;48.874;10.186;2023-01-28T11:30:25;19.33;;;11.20;;
44438;SDS011;30145;48.874;10.186;2023-01-28T11:35:37;19.13;;;11.67;;
44438;SDS011;30145;48.874;10.186;2023-01-28T11:38:16;18.40;;;12.13;;
44438;SDS011;30145;48.874;10.186;2023-01-28T11:40:51;17.43;;;11.30;;
44438;SDS011;30145;48.874;10.186;2023-01-28T11:43:19;20.17;;;13.03;;
44438;SDS011;30145;48.874;10.186;2023-01-28T11:46:16;18.93;;;11.43;;
44438;SDS011;30145;48.874;10.186;2023-01-28T11:51:33;24.17;;;14.47;;
44438;SDS011;30145;48.874;10.186;2023-01-28T11:57:16;20.80;;;13.10;;
44438;SDS011;30145;48.874;10.186;2023-01-28T12:05:47;20.27;;;13.03;;
44438;SDS011;30145;48.874;10.186;2023-01-28T12:08:25;20.10;;;12.73;;
44438;SDS011;30145;48.874;10.186;2023-01-28T12:11:11;15.50;;;10.47;;
44438;SDS011;30145;48.874;10.186;2023-01-28T12:17:32;19.87;;;12.03;;
44438;SDS011;30145;48.874;10.186;2023-01-28T12:28:07;15.43;;;9.57;;
44438;SDS011;30145;48.874;10.186;2023-01-28T12:33:21;12.20;;;8.27;;
44438;SDS011;30145;48.874;10.186;2023-01-28T12:36:02;10.87;;;7.87;;
44438;SDS011;30145;48.874;10.186;2023-01-28T12:41:22;17.10;;;9.43;;
44438;SDS011;30145;48.874;10.186;2023-01-28T12:49:17;13.67;;;9.73;;
44438;SDS011;30145;48.874;10.186;2023-01-28T12:51:52;14.90;;;9.63;;
44438;SDS011;30145;48.874;10.186;2023-01-28T12:56:53;11.07;;;7.57;;
44438;SDS011;30145;48.874;10.186;2023-01-28T13:02:15;12.17;;;8.73;;
44438;SDS011;30145;48.874;10.186;2023-01-28T13:07:38;12.60;;;8.10;;
44438;SDS011;30145;48.874;10.186;2023-01-28T13:12:52;14.90;;;9.83;;
44438;SDS011;30145;48.874;10.186;2023-01-28T13:15:20;12.67;;;8.73;;
44438;SDS011;30145;48.874;10.186;2023-01-28T13:18:00;12.77;;;9.57;;
44438;SDS011;30145;48.874;10.186;2023-01-28T13:20:29;11.60;;;8.53;;
44438;SDS011;30145;48.874;10.186;2023-01-28T13:23:01;13.07;;;9.07;;
44438;SDS011;30145;48.874;10.186;2023-01-28T13:25:31;13.87;;;10.07;;
44438;SDS011;30145;48.874;10.186;2023-01-28T13:28:00;15.50;;;10.97;;
44438;SDS011;30145;48.874;10.186;2023-01-28T13:30:29;13.90;;;8.60;;
44438;SDS011;30145;48.874;10.186;2023-01-28T13:33:05;11.10;;;7.83;;
44438;SDS011;30145;48.874;10.186;2023-01-28T13:35:36;12.00;;;9.17;;
44438;SDS011;30145;48.874;10.186;2023-01-28T13:38:17;12.93;;;8.73;;
44438;SDS011;30145;48.874;10.186;2023-01-28T13:40:55;13.40;;;8.97;;
44438;SDS011;30145;48.874;10.186;2023-01-28T13:46:00;12.80;;;8.43;;
44438;SDS011;30145;48.874;10.186;2023-01-28T13:48:30;10.27;;;7.30;;
44438;SDS011;30145;48.874;10.186;2023-01-28T13:50:58;12.07;;;7.70;;
44438;SDS011;30145;48.874;10.186;2023-01-28T13:56:09;17.60;;;11.30;;
44438;SDS011;30145;48.874;10.186;2023-01-28T13:59:28;11.20;;;8.03;;
44438;SDS011;30145;48.874;10.186;2023-01-28T14:04:42;15.37;;;10.10;;
44438;SDS011;30145;48.874;10.186;2023-01-28T14:07:39;10.37;;;8.10;;
44438;SDS011;30145;48.874;10.186;2023-01-28T14:10:44;11.50;;;7.77;;
44438;SDS011;30145;48.874;10.186;2023-01-28T14:19:14;9.60;;;7.73;;
44438;SDS011;30145;48.874;10.186;2023-01-28T14:21:41;10.20;;;8.20;;
44438;SDS011;30145;48.874;10.186;2023-01-28T14:24:13;10.77;;;7.47;;
44438;SDS011;30145;48.874;10.186;2023-01-28T14:26:49;10.57;;;8.40;;
44438;SDS011;30145;48.874;10.186;2023-01-28T14:32:15;10.40;;;7.67;;
44438;SDS011;30145;48.874;10.186;2023-01-28T14:34:47;10.10;;;7.43;;
44438;SDS011;30145;48.874;10.186;2023-01-28T14:37:16;10.63;;;7.50;;
44438;SDS011;30145;48.874;10.186;2023-01-28T14:39:50;10.57;;;7.80;;
44438;SDS011;30145;48.874;10.186;2023-01-28T14:42:20;12.80;;;8.37;;
44438;SDS011;30145;48.874;10.186;2023-01-28T14:45:00;12.50;;;8.47;;
44438;SDS011;30145;48.874;10.186;2023-01-28T14:47:49;16.53;;;11.13;;
44438;SDS011;30145;48.874;10.186;2023-01-28T14:50:25;31.17;;;17.13;;
44438;SDS011;30145;48.874;10.186;2023-01-28T14:58:44;14.70;;;10.50;;
44438;SDS011;30145;48.874;10.186;2023-01-28T15:01:31;15.73;;;10.33;;
44438;SDS011;30145;48.874;10.186;2023-01-28T15:03:58;10.73;;;8.97;;
44438;SDS011;30145;48.874;10.186;2023-01-28T15:06:33;11.57;;;8.53;;
44438;SDS011;30145;48.874;10.186;2023-01-28T15:09:08;11.53;;;8.13;;
44438;SDS011;30145;48.874;10.186;2023-01-28T15:11:38;9.47;;;7.10;;
44438;SDS011;30145;48.874;10.186;2023-01-28T15:14:12;7.70;;;6.57;;
44438;SDS011;30145;48.874;10.186;2023-01-28T15:16:50;10.17;;;7.33;;
44438;SDS011;30145;48.874;10.186;2023-01-28T15:19:17;10.13;;;7.60;;
44438;SDS011;30145;48.874;10.186;2023-01-28T15:22:06;7.50;;;6.50;;
44438;SDS011;30145;48.874;10.186;2023-01-28T15:24:33;6.63;;;5.00;;
44438;SDS011;30145;48.874;10.186;2023-01-28T15:27:01;8.77;;;6.80;;
44438;SDS011;30145;48.874;10.186;2023-01-28T15:29:30;6.83;;;5.57;;
44438;SDS011;30145;48.874;10.186;2023-01-28T15:32:02;6.97;;;5.20;;
44438;SDS011;30145;48.874;10.186;2023-01-28T15:34:30;7.57;;;5.67;;
44438;SDS011;30145;48.874;10.186;2023-01-28T15:36:58;9.23;;;6.73;;
44438;SDS011;30145;48.874;10.186;2023-01-28T15:39:27;11.60;;;8.20;;
44438;SDS011;30145;48.874;10.186;2023-01-28T15:41:56;7.57;;;6.00;;
44438;SDS011;30145;48.874;10.186;2023-01-28T15:44:29;8.00;;;5.57;;
44438;SDS011;30145;48.874;10.186;2023-01-28T15:46:58;7.97;;;6.97;;
44438;SDS011;30145;48.874;10.186;2023-01-28T15:49:33;12.70;;;10.13;;
44438;SDS011;30145;48.874;10.186;2023-01-28T15:52:01;9.20;;;7.80;;
44438;SDS011;30145;48.874;10.186;2023-01-28T15:54:28;7.00;;;5.73;;
44438;SDS011;30145;48.874;10.186;2023-01-28T15:56:56;11.40;;;8.80;;
44438;SDS011;30145;48.874;10.186;2023-01-28T15:59:35;8.27;;;7.37;;
44438;SDS011;30145;48.874;10.186;2023-01-28T16:02:22;10.37;;;7.57;;
44438;SDS011;30145;48.874;10.186;2023-01-28T16:05:03;11.73;;;10.40;;
44438;SDS011;30145;48.874;10.186;2023-01-28T16:07:42;7.83;;;6.40;;
44438;SDS011;30145;48.874;10.186;2023-01-28T16:10:21;13.13;;;9.50;;
44438;SDS011;30145;48.874;10.186;2023-01-28T16:12:51;8.20;;;6.73;;
44438;SDS011;30145;48.874;10.186;2023-01-28T16:15:21;9.60;;;8.40;;
44438;SDS011;30145;48.874;10.186;2023-01-28T16:17:49;6.60;;;4.93;;
44438;SDS011;30145;48.874;10.186;2023-01-28T16:20:27;6.83;;;5.90;;
44438;SDS011;30145;48.874;10.186;2023-01-28T16:22:56;6.90;;;6.03;;
44438;SDS011;30145;48.874;10.186;2023-01-28T16:25:34;8.93;;;7.70;;
44438;SDS011;30145;48.874;10.186;2023-01-28T16:28:10;9.63;;;6.17;;
44438;SDS011;30145;48.874;10.186;2023-01-28T16:30:42;7.50;;;6.00;;